High View, West Virginia
Current Conditions -  °F | °C
As of 12:35 PM on Thursday 23 Oct 2014 (Local Time) from KOKV Reporting Station
Clear Clear  
Wind Chill: 63°   Ceiling: Unl
Heat Index: 63°   Visibility: 10mi
Dew Point: 37°   Wind: 18mph
Humidity: 39%   Direction: 320°NW
Pressure: 29.95"   Gusts: 26mph
Location:  39.21°N, 78.44°W
Report Text: KOKV 231635Z AUTO 32016G23KT 10SM CLR 17/03 A2995 RMK AO2
Loading
Personal Weather Stations






























Interactive Weather Map
Tropical Storm Tracking
New forecast layout! Learn more

10-Day Weather Forecast

Advertisements
Track Severe Weather on mobile